createdAt,value
2018-09-29T00:01:45.203Z,9.70
2018-09-29T00:04:14.003Z,9.53
2018-09-29T00:06:42.697Z,9.00
2018-09-29T00:09:12.472Z,9.53
2018-09-29T00:11:41.435Z,10.03
2018-09-29T00:14:11.363Z,10.20
2018-09-29T00:16:40.080Z,9.50
2018-09-29T00:19:08.820Z,9.77
2018-09-29T00:21:37.592Z,9.60
2018-09-29T00:26:49.389Z,9.57
2018-09-29T00:29:18.075Z,8.80
2018-09-29T00:31:46.761Z,8.93
2018-09-29T00:34:15.481Z,8.93
2018-09-29T00:36:44.133Z,8.47
2018-09-29T00:39:12.803Z,9.13
2018-09-29T00:41:41.531Z,9.40
2018-09-29T00:44:10.271Z,8.80
2018-09-29T00:46:38.916Z,9.40
2018-09-29T00:49:07.579Z,9.83
2018-09-29T00:51:36.368Z,9.47
2018-09-29T00:54:05.064Z,8.83
2018-09-29T00:56:33.783Z,8.40
2018-09-29T00:59:02.523Z,8.50
2018-09-29T01:01:31.256Z,9.17
2018-09-29T01:04:00.024Z,9.93
2018-09-29T01:06:28.795Z,8.37
2018-09-29T01:08:57.580Z,8.37
2018-09-29T01:11:26.227Z,9.07
2018-09-29T01:13:54.969Z,9.43
2018-09-29T01:16:23.745Z,8.67
2018-09-29T01:18:52.408Z,7.77
2018-09-29T01:21:21.147Z,7.00
2018-09-29T01:23:49.882Z,7.27
2018-09-29T01:26:18.546Z,8.17
2018-09-29T01:28:47.267Z,6.60
2018-09-29T01:31:15.980Z,6.90
2018-09-29T01:33:44.644Z,7.20
2018-09-29T01:36:13.295Z,7.63
2018-09-29T01:38:42.034Z,6.73
2018-09-29T01:41:10.729Z,7.07
2018-09-29T01:43:39.444Z,6.70
2018-09-29T01:46:08.172Z,6.63
2018-09-29T01:48:36.838Z,6.30
2018-09-29T01:51:05.573Z,5.80
2018-09-29T01:53:34.216Z,7.03
2018-09-29T01:56:02.876Z,6.60
2018-09-29T01:58:31.592Z,6.30
2018-09-29T02:01:00.267Z,6.47
2018-09-29T02:03:28.971Z,6.87
2018-09-29T02:05:57.786Z,6.70
2018-09-29T02:08:26.459Z,6.77
2018-09-29T02:10:55.115Z,6.73
2018-09-29T02:13:23.886Z,6.50
2018-09-29T02:15:52.635Z,8.73
2018-09-29T02:18:21.323Z,6.67
2018-09-29T02:20:50.052Z,7.00
2018-09-29T02:23:18.836Z,6.70
2018-09-29T02:25:47.499Z,6.87
2018-09-29T02:28:16.238Z,6.67
2018-09-29T02:30:45.079Z,6.87
2018-09-29T02:33:13.715Z,6.90
2018-09-29T02:35:42.376Z,6.83
2018-09-29T02:38:11.174Z,7.33
2018-09-29T02:40:39.899Z,8.17
2018-09-29T02:43:08.559Z,6.90
2018-09-29T02:45:37.271Z,7.87
2018-09-29T02:48:06.162Z,7.90
2018-09-29T02:50:34.858Z,7.60
2018-09-29T02:53:03.595Z,7.27
2018-09-29T02:55:32.321Z,7.80
2018-09-29T02:58:00.966Z,6.77
2018-09-29T03:00:29.713Z,7.57
2018-09-29T03:02:58.465Z,7.57
2018-09-29T03:05:27.212Z,7.27
2018-09-29T03:07:55.868Z,6.13
2018-09-29T03:10:24.536Z,6.10
2018-09-29T03:12:53.168Z,6.30
2018-09-29T03:15:21.828Z,5.93
2018-09-29T03:17:50.535Z,6.03
2018-09-29T03:20:19.294Z,5.70
2018-09-29T03:22:48.063Z,6.10
2018-09-29T03:25:16.724Z,5.57
2018-09-29T03:27:45.436Z,5.70
2018-09-29T03:30:14.245Z,6.00
2018-09-29T03:32:42.893Z,5.43
2018-09-29T03:35:11.536Z,6.63
2018-09-29T03:37:40.184Z,6.60
2018-09-29T03:40:08.856Z,6.10
2018-09-29T03:42:37.504Z,6.80
2018-09-29T03:45:06.461Z,7.30
2018-09-29T03:47:35.088Z,6.47
2018-09-29T03:50:03.908Z,6.67
2018-09-29T03:52:32.639Z,6.80
2018-09-29T03:55:01.406Z,6.57
2018-09-29T03:57:30.088Z,6.73
2018-09-29T03:59:58.763Z,6.50
2018-09-29T04:02:27.423Z,7.23
2018-09-29T04:04:56.051Z,7.57
2018-09-29T04:07:24.695Z,6.87
2018-09-29T04:09:53.321Z,6.93
2018-09-29T04:12:22.044Z,7.20
2018-09-29T04:14:50.697Z,7.67
2018-09-29T04:17:19.389Z,7.53
2018-09-29T04:19:48.111Z,7.13
2018-09-29T04:22:16.748Z,7.60
2018-09-29T04:24:45.480Z,8.53
2018-09-29T04:27:14.187Z,13.20
2018-09-29T04:29:42.920Z,9.30
2018-09-29T04:32:11.656Z,12.10
2018-09-29T04:34:40.327Z,11.03
2018-09-29T04:37:09.035Z,10.20
2018-09-29T04:39:37.755Z,9.53
2018-09-29T04:42:06.657Z,10.17
2018-09-29T04:44:35.300Z,9.10
2018-09-29T04:47:04.030Z,8.80
2018-09-29T04:49:32.649Z,9.27
2018-09-29T04:52:01.313Z,8.40
2018-09-29T04:54:29.958Z,8.90
2018-09-29T04:56:58.576Z,9.43
2018-09-29T04:59:27.248Z,9.13
2018-09-29T05:01:55.976Z,8.60
2018-09-29T05:04:24.676Z,9.70
2018-09-29T05:06:53.396Z,9.63
2018-09-29T05:09:22.081Z,10.10
2018-09-29T05:11:50.779Z,10.00
2018-09-29T05:14:19.500Z,10.40
2018-09-29T05:16:48.189Z,11.10
2018-09-29T05:19:17.026Z,11.23
2018-09-29T05:21:45.696Z,10.73
2018-09-29T05:24:14.423Z,11.20
2018-09-29T05:26:43.129Z,11.97
2018-09-29T05:29:11.901Z,10.03
2018-09-29T05:31:40.556Z,10.00
2018-09-29T05:34:09.206Z,11.13
2018-09-29T05:36:37.912Z,10.47
2018-09-29T05:39:08.097Z,11.37
2018-09-29T05:41:36.738Z,10.80
2018-09-29T05:44:05.392Z,10.90
2018-09-29T05:46:34.086Z,12.97
2018-09-29T05:49:02.915Z,12.50
2018-09-29T05:51:31.567Z,13.80
2018-09-29T05:54:00.368Z,13.87
2018-09-29T05:56:29.077Z,13.37
2018-09-29T05:58:57.848Z,13.23
2018-09-29T06:01:26.520Z,12.93
2018-09-29T06:03:55.232Z,15.20
2018-09-29T06:06:24.002Z,15.77
2018-09-29T06:08:52.672Z,15.07
2018-09-29T06:11:21.395Z,13.63
2018-09-29T06:13:50.469Z,15.20
2018-09-29T06:16:19.236Z,13.83
2018-09-29T06:18:47.983Z,11.37
2018-09-29T06:21:16.730Z,12.40
2018-09-29T06:23:45.458Z,11.73
2018-09-29T06:26:14.100Z,14.13
2018-09-29T06:28:49.382Z,13.63
2018-09-29T06:31:18.286Z,13.63
2018-09-29T06:33:47.089Z,14.83
2018-09-29T06:36:15.792Z,14.83
2018-09-29T06:38:44.506Z,13.77
2018-09-29T06:41:13.346Z,13.63
2018-09-29T06:43:42.008Z,13.80
2018-09-29T06:46:10.680Z,13.77
2018-09-29T06:48:39.413Z,12.53
2018-09-29T06:51:08.154Z,11.90
2018-09-29T06:53:37.039Z,12.30
2018-09-29T06:56:05.801Z,14.37
2018-09-29T06:58:34.596Z,13.93
2018-09-29T07:01:03.246Z,12.77
2018-09-29T07:03:31.899Z,12.17
2018-09-29T07:06:00.665Z,11.37
2018-09-29T07:08:29.407Z,10.90
2018-09-29T07:10:58.172Z,11.70
2018-09-29T07:13:27.195Z,10.83
2018-09-29T07:15:55.867Z,12.73
2018-09-29T07:18:24.602Z,11.43
2018-09-29T07:20:53.268Z,11.10
2018-09-29T07:23:22.046Z,10.60
2018-09-29T07:25:50.805Z,11.63
2018-09-29T07:28:19.602Z,10.33
2018-09-29T07:30:48.483Z,10.53
2018-09-29T07:33:17.267Z,12.03
2018-09-29T07:35:45.932Z,11.20
2018-09-29T07:38:14.663Z,11.23
2018-09-29T07:40:43.359Z,11.50
2018-09-29T07:43:12.161Z,11.57
2018-09-29T07:45:40.934Z,11.03
2018-09-29T07:48:09.679Z,11.87
2018-09-29T07:50:38.589Z,12.10
2018-09-29T07:53:07.276Z,12.27
2018-09-29T07:55:36.259Z,12.57
2018-09-29T07:58:05.157Z,13.95
2018-09-29T08:00:34.851Z,12.23
2018-09-29T08:03:03.929Z,13.60
2018-09-29T08:05:32.612Z,12.60
2018-09-29T08:08:01.405Z,12.60
2018-09-29T08:10:30.248Z,13.30
2018-09-29T08:12:58.932Z,13.53
2018-09-29T08:15:27.628Z,14.13
2018-09-29T08:17:56.383Z,14.60
2018-09-29T08:20:25.097Z,15.20
2018-09-29T08:22:53.752Z,15.00
2018-09-29T08:25:22.442Z,13.83
2018-09-29T08:27:51.258Z,14.93
2018-09-29T08:30:21.185Z,14.73
2018-09-29T08:32:49.952Z,13.53
2018-09-29T08:35:18.809Z,14.00
2018-09-29T08:37:47.595Z,19.73
2018-09-29T08:40:16.292Z,14.07
2018-09-29T08:42:44.981Z,13.57
2018-09-29T08:45:13.649Z,13.40
2018-09-29T08:47:42.377Z,11.83
2018-09-29T08:50:11.132Z,12.73
2018-09-29T08:52:39.870Z,12.63
2018-09-29T08:55:08.610Z,12.93
2018-09-29T08:57:37.325Z,13.50
2018-09-29T09:00:10.195Z,14.00
2018-09-29T09:02:39.725Z,13.03
2018-09-29T09:05:08.444Z,14.43
2018-09-29T09:07:37.181Z,15.53
2018-09-29T09:10:05.981Z,14.90
2018-09-29T09:12:34.705Z,12.23
2018-09-29T09:15:03.396Z,12.20
2018-09-29T09:17:32.139Z,11.87
2018-09-29T09:20:00.784Z,11.90
2018-09-29T09:22:29.505Z,11.23
2018-09-29T09:24:58.273Z,10.70
2018-09-29T09:27:27.080Z,10.50
2018-09-29T09:29:55.889Z,11.13
2018-09-29T09:32:24.616Z,12.97
2018-09-29T09:34:53.392Z,10.67
2018-09-29T09:37:22.261Z,13.37
2018-09-29T09:39:51.285Z,12.10
2018-09-29T09:42:19.962Z,11.67
2018-09-29T09:44:48.685Z,11.07
2018-09-29T09:47:17.354Z,9.40
2018-09-29T09:49:46.125Z,10.83
2018-09-29T09:52:14.895Z,10.37
2018-09-29T09:54:43.623Z,10.63
2018-09-29T09:57:12.265Z,10.77
2018-09-29T09:59:40.968Z,9.87
2018-09-29T10:02:14.707Z,9.80
2018-09-29T10:04:43.353Z,10.05
2018-09-29T10:07:12.018Z,8.93
2018-09-29T10:09:40.681Z,9.60
2018-09-29T10:12:09.380Z,9.45
2018-09-29T10:14:38.322Z,9.00
2018-09-29T10:17:07.650Z,9.78
2018-09-29T10:19:36.377Z,9.18
2018-09-29T10:22:05.101Z,9.00
2018-09-29T10:24:33.816Z,9.50
2018-09-29T10:27:02.506Z,10.13
2018-09-29T10:29:31.224Z,11.10
2018-09-29T10:31:59.952Z,9.48
2018-09-29T10:34:28.619Z,11.18
2018-09-29T10:36:57.353Z,9.10
2018-09-29T10:39:26.073Z,10.72
2018-09-29T10:41:55.075Z,9.10
2018-09-29T10:44:24.113Z,8.90
2018-09-29T10:46:52.798Z,8.93
2018-09-29T10:49:21.476Z,9.60
2018-09-29T10:51:50.353Z,9.03
2018-09-29T10:54:19.316Z,8.70
2018-09-29T10:56:47.983Z,8.95
2018-09-29T10:59:16.798Z,7.42
2018-09-29T11:01:45.441Z,8.28
2018-09-29T11:04:14.135Z,8.65
2018-09-29T11:06:42.806Z,9.15
2018-09-29T11:09:12.438Z,9.58
2018-09-29T11:11:41.165Z,9.03
2018-09-29T11:14:09.861Z,8.00
2018-09-29T11:16:38.664Z,9.15
2018-09-29T11:19:07.435Z,7.70
2018-09-29T11:21:36.101Z,8.08
2018-09-29T11:24:04.853Z,7.20
2018-09-29T11:26:33.890Z,7.92
2018-09-29T11:29:02.819Z,8.98
2018-09-29T11:31:31.489Z,8.25
2018-09-29T11:34:00.272Z,8.05
2018-09-29T11:36:28.933Z,8.58
2018-09-29T11:38:57.604Z,7.75
2018-09-29T11:41:26.249Z,8.00
2018-09-29T11:43:55.001Z,8.10
2018-09-29T11:46:24.084Z,8.15
2018-09-29T11:48:52.845Z,7.30
2018-09-29T11:51:21.673Z,7.55
2018-09-29T11:53:50.379Z,6.75
2018-09-29T11:56:19.199Z,5.97
2018-09-29T11:58:47.831Z,6.83
2018-09-29T12:01:16.617Z,6.20
2018-09-29T12:03:45.465Z,6.30
2018-09-29T12:06:14.162Z,5.85
2018-09-29T12:08:42.925Z,6.10
2018-09-29T12:11:11.596Z,5.42
2018-09-29T12:13:40.288Z,6.08
2018-09-29T12:16:09.071Z,6.80
2018-09-29T12:18:37.792Z,6.47
2018-09-29T12:21:06.535Z,6.42
2018-09-29T12:23:35.164Z,5.50
2018-09-29T12:26:03.888Z,5.90
2018-09-29T12:28:32.531Z,6.10
2018-09-29T12:31:01.224Z,6.50
2018-09-29T12:33:29.915Z,6.50
2018-09-29T12:35:58.693Z,5.37
2018-09-29T12:38:27.373Z,5.70
2018-09-29T12:40:56.097Z,5.67
2018-09-29T12:43:24.752Z,5.00
2018-09-29T12:45:53.364Z,4.50
2018-09-29T12:48:22.046Z,4.58
2018-09-29T12:50:50.692Z,4.12
2018-09-29T12:53:19.467Z,4.05
2018-09-29T12:55:48.276Z,4.65
2018-09-29T12:58:17.022Z,3.98
2018-09-29T13:00:45.744Z,4.37
2018-09-29T13:03:14.484Z,4.72
2018-09-29T13:05:43.229Z,4.30
2018-09-29T13:08:11.903Z,4.85
2018-09-29T13:10:40.619Z,4.50
2018-09-29T13:13:09.365Z,4.75
2018-09-29T13:15:38.132Z,5.03
2018-09-29T13:18:06.782Z,5.07
2018-09-29T13:20:35.464Z,5.00
2018-09-29T13:23:04.196Z,4.60
2018-09-29T13:25:32.864Z,6.27
2018-09-29T13:28:01.504Z,4.93
2018-09-29T13:30:30.184Z,4.17
2018-09-29T13:32:58.857Z,4.33
2018-09-29T13:35:27.529Z,6.90
2018-09-29T13:37:56.229Z,4.83
2018-09-29T13:40:24.940Z,4.70
2018-09-29T13:42:53.607Z,4.87
2018-09-29T13:45:22.267Z,4.20
2018-09-29T13:47:50.908Z,4.47
2018-09-29T13:50:19.567Z,3.90
2018-09-29T13:52:48.346Z,3.33
2018-09-29T13:55:16.993Z,3.67
2018-09-29T13:57:45.752Z,3.70
2018-09-29T14:00:14.514Z,4.50
2018-09-29T14:02:43.241Z,4.27
2018-09-29T14:05:11.911Z,4.40
2018-09-29T14:07:40.592Z,4.30
2018-09-29T14:10:09.244Z,7.57
2018-09-29T14:12:37.894Z,5.30
2018-09-29T14:15:06.851Z,5.30
2018-09-29T14:17:35.478Z,5.30
2018-09-29T14:20:04.283Z,5.83
2018-09-29T14:22:32.971Z,6.17
2018-09-29T14:25:01.574Z,4.90
2018-09-29T14:27:30.284Z,4.77
2018-09-29T14:29:58.993Z,4.90
2018-09-29T14:32:27.651Z,5.40
2018-09-29T14:34:56.312Z,5.00
2018-09-29T14:37:24.988Z,7.20
2018-09-29T14:39:53.641Z,5.30
2018-09-29T14:42:22.388Z,5.07
2018-09-29T14:44:51.164Z,4.90
2018-09-29T14:47:19.945Z,5.00
2018-09-29T14:49:48.756Z,4.90
2018-09-29T14:52:17.500Z,5.00
2018-09-29T14:54:46.122Z,4.53
2018-09-29T14:57:14.776Z,5.73
2018-09-29T14:59:43.480Z,4.60
2018-09-29T15:02:12.970Z,4.57
2018-09-29T15:04:41.761Z,4.83
2018-09-29T15:07:10.391Z,5.37
2018-09-29T15:09:39.044Z,7.57
2018-09-29T15:12:07.804Z,4.43
2018-09-29T15:14:36.556Z,4.90
2018-09-29T15:17:05.428Z,7.20
2018-09-29T15:19:34.247Z,4.93
2018-09-29T15:22:02.953Z,6.73
2018-09-29T15:24:31.624Z,6.00
2018-09-29T15:27:00.339Z,5.33
2018-09-29T15:29:29.061Z,15.37
2018-09-29T15:31:57.767Z,6.37
2018-09-29T15:34:26.404Z,5.87
2018-09-29T15:36:55.093Z,6.20
2018-09-29T15:39:23.840Z,5.50
2018-09-29T15:41:52.622Z,5.30
2018-09-29T15:44:21.588Z,5.60
2018-09-29T15:46:50.292Z,5.70
2018-09-29T15:49:18.978Z,6.60
2018-09-29T15:51:48.257Z,7.03
2018-09-29T15:54:16.957Z,11.50
2018-09-29T15:56:45.624Z,5.67
2018-09-29T15:59:14.434Z,6.47
2018-09-29T16:01:43.220Z,6.23
2018-09-29T16:04:11.937Z,6.00
2018-09-29T16:06:40.588Z,5.60
2018-09-29T16:09:10.515Z,6.10
2018-09-29T16:11:39.917Z,6.40
2018-09-29T16:14:08.796Z,6.63
2018-09-29T16:16:37.581Z,6.20
2018-09-29T16:19:06.285Z,6.47
2018-09-29T16:21:35.123Z,5.97
2018-09-29T16:24:03.884Z,9.47
2018-09-29T16:26:32.517Z,7.40
2018-09-29T16:29:01.317Z,7.13
2018-09-29T16:31:30.033Z,7.30
2018-09-29T16:33:58.708Z,12.20
2018-09-29T16:36:27.375Z,9.90
2018-09-29T16:38:56.076Z,8.63
2018-09-29T16:41:24.733Z,9.33
2018-09-29T16:43:53.382Z,9.07
2018-09-29T16:46:22.039Z,9.50
2018-09-29T16:48:50.709Z,9.83
2018-09-29T16:51:19.405Z,10.47
2018-09-29T16:53:48.112Z,10.83
2018-09-29T16:56:16.849Z,10.60
2018-09-29T16:58:45.600Z,12.43
2018-09-29T17:01:14.261Z,10.43
2018-09-29T17:03:43.019Z,10.93
2018-09-29T17:06:11.692Z,12.03
2018-09-29T17:08:40.459Z,9.97
2018-09-29T17:11:09.135Z,10.93
2018-09-29T17:13:37.833Z,11.20
2018-09-29T17:16:06.605Z,11.77
2018-09-29T17:18:35.332Z,10.60
2018-09-29T17:21:04.049Z,11.10
2018-09-29T17:23:32.904Z,10.97
2018-09-29T17:26:01.621Z,11.30
2018-09-29T17:28:30.410Z,10.90
2018-09-29T17:30:59.177Z,12.33
2018-09-29T17:33:28.014Z,12.20
2018-09-29T17:35:56.855Z,12.80
2018-09-29T17:38:25.667Z,12.97
2018-09-29T17:40:54.372Z,11.77
2018-09-29T17:43:23.156Z,12.63
2018-09-29T17:45:51.893Z,13.00
2018-09-29T17:48:20.540Z,13.17
2018-09-29T17:50:49.200Z,11.77
2018-09-29T17:53:17.862Z,11.20
2018-09-29T17:55:46.528Z,11.60
2018-09-29T17:58:15.190Z,16.13
2018-09-29T18:00:43.830Z,12.33
2018-09-29T18:03:12.581Z,11.57
2018-09-29T18:05:41.518Z,11.10
2018-09-29T18:08:10.369Z,13.30
2018-09-29T18:10:39.317Z,10.90
2018-09-29T18:13:08.062Z,10.60
2018-09-29T18:15:37.027Z,10.17
2018-09-29T18:18:05.853Z,10.07
2018-09-29T18:20:34.588Z,9.67
2018-09-29T18:23:03.432Z,9.83
2018-09-29T18:25:32.238Z,9.67
2018-09-29T18:28:01.385Z,10.00
2018-09-29T18:30:30.139Z,10.03
2018-09-29T18:32:58.903Z,9.60
2018-09-29T18:35:27.547Z,10.10
2018-09-29T18:37:56.221Z,10.00
2018-09-29T18:40:25.047Z,9.73
2018-09-29T18:42:53.723Z,11.13
2018-09-29T18:45:22.487Z,11.10
2018-09-29T18:47:51.411Z,11.63
2018-09-29T18:50:20.377Z,10.93
2018-09-29T18:52:49.422Z,10.83
2018-09-29T18:55:18.128Z,11.53
2018-09-29T18:57:46.948Z,11.50
2018-09-29T19:00:18.737Z,11.40
2018-09-29T19:02:47.504Z,12.80
2018-09-29T19:05:16.188Z,12.40
2018-09-29T19:07:44.959Z,13.50
2018-09-29T19:10:14.336Z,13.10
2018-09-29T19:12:43.090Z,14.10
2018-09-29T19:15:11.775Z,13.67
2018-09-29T19:17:40.431Z,13.67
2018-09-29T19:20:09.179Z,13.13
2018-09-29T19:22:38.049Z,14.03
2018-09-29T19:25:06.857Z,14.90
2018-09-29T19:27:35.525Z,15.00
2018-09-29T19:30:07.514Z,15.40
2018-09-29T19:32:36.236Z,15.27
2018-09-29T19:35:05.052Z,15.80
2018-09-29T19:37:33.727Z,15.43
2018-09-29T19:40:03.078Z,16.33
2018-09-29T19:42:32.601Z,15.80
2018-09-29T19:45:01.332Z,17.03
2018-09-29T19:47:30.054Z,19.07
2018-09-29T19:49:58.763Z,16.70
2018-09-29T19:52:27.495Z,16.50
2018-09-29T19:54:56.221Z,17.30
2018-09-29T19:57:24.880Z,17.00
2018-09-29T19:59:53.600Z,17.13
2018-09-29T20:02:22.456Z,16.43
2018-09-29T20:04:51.160Z,17.27
2018-09-29T20:07:19.925Z,17.47
2018-09-29T20:09:48.665Z,17.73
2018-09-29T20:12:17.353Z,18.50
2018-09-29T20:14:46.039Z,18.27
2018-09-29T20:17:14.688Z,17.93
2018-09-29T20:19:43.396Z,19.10
2018-09-29T20:22:12.216Z,18.30
2018-09-29T20:24:40.957Z,19.00
2018-09-29T20:27:10.258Z,18.60
2018-09-29T20:29:39.150Z,19.10
2018-09-29T20:32:07.980Z,17.57
2018-09-29T20:34:36.767Z,18.90
2018-09-29T20:37:05.542Z,19.00
2018-09-29T20:39:34.274Z,19.80
2018-09-29T20:42:03.036Z,19.67
2018-09-29T20:44:31.732Z,20.13
2018-09-29T20:47:00.463Z,19.57
2018-09-29T20:49:29.148Z,18.93
2018-09-29T20:51:57.790Z,18.97
2018-09-29T20:54:26.500Z,19.60
2018-09-29T20:56:55.120Z,19.80
2018-09-29T20:59:23.822Z,21.03
2018-09-29T21:01:52.549Z,19.93
2018-09-29T21:04:21.220Z,18.73
2018-09-29T21:06:49.892Z,24.23
2018-09-29T21:09:18.544Z,20.23
2018-09-29T21:11:47.241Z,19.63
2018-09-29T21:14:15.860Z,21.43
2018-09-29T21:16:44.664Z,20.60
2018-09-29T21:19:13.320Z,20.03
2018-09-29T21:21:41.980Z,19.27
2018-09-29T21:24:10.857Z,20.03
2018-09-29T21:26:39.584Z,20.63
2018-09-29T21:29:08.336Z,21.07
2018-09-29T21:31:36.993Z,22.73
2018-09-29T21:34:05.716Z,20.47
2018-09-29T21:36:34.498Z,22.13
2018-09-29T21:39:03.284Z,20.80
2018-09-29T21:41:32.070Z,22.33
2018-09-29T21:44:00.720Z,21.10
2018-09-29T21:46:29.423Z,22.73
2018-09-29T21:48:58.139Z,20.97
2018-09-29T21:51:26.875Z,21.70
2018-09-29T21:53:55.539Z,21.20
2018-09-29T21:56:24.211Z,21.47
2018-09-29T21:58:52.981Z,20.80
2018-09-29T22:01:26.926Z,21.47
2018-09-29T22:03:55.580Z,20.47
2018-09-29T22:06:24.265Z,21.20
2018-09-29T22:08:52.957Z,21.33
2018-09-29T22:11:21.645Z,21.33
2018-09-29T22:13:50.433Z,22.13
2018-09-29T22:16:19.101Z,22.63
2018-09-29T22:18:47.748Z,22.17
2018-09-29T22:21:16.576Z,22.17
2018-09-29T22:23:45.240Z,21.80
2018-09-29T22:26:14.421Z,23.17
2018-09-29T22:28:43.172Z,21.17
2018-09-29T22:31:11.820Z,22.23
2018-09-29T22:33:40.596Z,21.93
2018-09-29T22:36:09.236Z,22.40
2018-09-29T22:38:38.049Z,21.67
2018-09-29T22:41:06.878Z,21.50
2018-09-29T22:43:38.424Z,21.43
2018-09-29T22:46:07.163Z,21.80
2018-09-29T22:48:37.079Z,21.97
2018-09-29T22:51:05.880Z,22.57
2018-09-29T22:53:34.567Z,22.83
2018-09-29T22:56:03.299Z,21.90
2018-09-29T22:58:31.958Z,22.43
2018-09-29T23:01:00.757Z,21.93
2018-09-29T23:03:29.461Z,21.57
2018-09-29T23:05:58.119Z,21.80
2018-09-29T23:08:26.816Z,21.83
2018-09-29T23:10:55.500Z,22.50
2018-09-29T23:13:24.201Z,21.73
2018-09-29T23:15:53.009Z,22.40
2018-09-29T23:18:21.772Z,21.73
2018-09-29T23:20:50.475Z,22.07
2018-09-29T23:23:19.165Z,22.47
2018-09-29T23:25:47.847Z,22.43
2018-09-29T23:28:16.559Z,23.10
2018-09-29T23:30:45.352Z,23.00
2018-09-29T23:33:14.058Z,22.30
2018-09-29T23:35:42.851Z,23.27
2018-09-29T23:38:11.596Z,24.10
2018-09-29T23:40:40.295Z,23.67
2018-09-29T23:43:08.995Z,22.70
2018-09-29T23:45:37.656Z,23.33
2018-09-29T23:48:06.299Z,23.00
2018-09-29T23:50:35.050Z,24.43
2018-09-29T23:53:03.738Z,25.87
2018-09-29T23:55:32.428Z,23.60
2018-09-29T23:58:01.251Z,24.83
